Time;durP1;ratioP1;P1;durP2;ratioP2;P2;SDS_P1;SDS_P2;PMS_P1;PMS_P2;Temp;Humidity;BMP_temperature;BMP_pressure;BME280_temperature;BME280_humidity;BME280_pressure;Samples;Min_cycle;Max_cycle;Signal;HPM_P1;HPM_P2
2021/10/02 00:37:19;;;;;;;293.77;278.13;;;;;;;;;;4999661;28;20852;-69
2021/10/02 00:45:17;;;;;;;318.67;302.07;;;;;;;;;;5032267;28;20460;-69
2021/10/02 00:47:45;;;;;;;329.30;312.30;;;;;;;;;;5032057;28;20448;-69
2021/10/02 00:50:12;;;;;;;327.60;310.53;;;;;;;;;;5032506;28;20488;-69
2021/10/02 00:52:39;;;;;;;320.53;303.67;;;;;;;;;;5032609;28;20452;-69
2021/10/02 00:55:07;;;;;;;329.23;312.00;;;;;;;;;;5032632;28;20477;-69
2021/10/02 00:57:35;;;;;;;330.17;312.77;;;;;;;;;;5032162;28;20449;-69
2021/10/02 01:00:03;;;;;;;324.93;307.63;;;;;;;;;;5032281;28;20455;-69
2021/10/02 01:02:31;;;;;;;317.23;299.73;;;;;;;;;;5032318;28;20448;-69
2021/10/02 01:05:07;;;;;;;322.60;305.00;;;;;;;;;;5032221;28;20475;-69
2021/10/02 01:07:39;;;;;;;332.77;314.80;;;;;;;;;;5031969;28;20809;-68
2021/10/02 01:10:15;;;;;;;333.23;314.93;;;;;;;;;;5038587;28;20487;-69
2021/10/02 01:12:50;;;;;;;343.90;325.30;;;;;;;;;;5051735;28;20938;-69
2021/10/02 01:15:20;;;;;;;352.67;334.27;;;;;;;;;;5051894;28;20479;-68
2021/10/02 01:17:51;;;;;;;341.73;323.10;;;;;;;;;;5051628;28;20934;-68
2021/10/02 01:20:28;;;;;;;338.83;320.13;;;;;;;;;;5051921;28;20440;-68
2021/10/02 01:23:01;;;;;;;339.50;320.53;;;;;;;;;;5051576;28;20424;-68
2021/10/02 01:25:44;;;;;;;334.90;316.50;;;;;;;;;;5051606;28;20432;-69
2021/10/02 01:28:15;;;;;;;346.13;326.90;;;;;;;;;;5051515;28;20443;-68
2021/10/02 01:33:43;;;;;;;339.33;320.33;;;;;;;;;;4970555;28;20456;-67
2021/10/02 01:36:25;;;;;;;336.40;317.80;;;;;;;;;;5037531;28;20463;-67
2021/10/02 01:47:13;;;;;;;355.90;336.30;;;;;;;;;;5031455;28;20436;-69
2021/10/02 01:49:41;;;;;;;357.93;338.93;;;;;;;;;;5031510;28;20484;-68
2021/10/02 01:52:09;;;;;;;359.67;340.33;;;;;;;;;;5031886;28;20449;-69
2021/10/02 01:54:37;;;;;;;348.33;328.70;;;;;;;;;;5031409;28;20468;-69
2021/10/02 01:57:06;;;;;;;363.80;344.50;;;;;;;;;;5031668;28;20518;-69
2021/10/02 01:59:35;;;;;;;356.97;337.40;;;;;;;;;;5021392;28;20445;-68
2021/10/02 02:02:02;;;;;;;345.30;326.03;;;;;;;;;;5011663;28;20821;-68
2021/10/02 02:04:30;;;;;;;357.40;338.40;;;;;;;;;;5011364;28;20989;-68
2021/10/02 02:06:59;;;;;;;354.77;335.63;;;;;;;;;;5011887;28;20456;-69
2021/10/02 02:09:26;;;;;;;354.40;335.10;;;;;;;;;;5011723;28;20488;-67
2021/10/02 02:11:54;;;;;;;328.70;310.40;;;;;;;;;;5011844;28;20449;-68
2021/10/02 02:14:21;;;;;;;311.47;294.00;;;;;;;;;;5011248;28;20851;-68
2021/10/02 02:16:50;;;;;;;290.23;273.70;;;;;;;;;;5011721;28;20450;-68
2021/10/02 02:19:19;;;;;;;283.20;266.93;;;;;;;;;;5011719;28;20461;-69
2021/10/02 02:21:46;;;;;;;274.30;258.37;;;;;;;;;;5011666;28;20812;-68
2021/10/02 02:24:13;;;;;;;272.93;256.83;;;;;;;;;;5011192;28;20473;-68
2021/10/02 02:26:41;;;;;;;290.53;273.03;;;;;;;;;;5011780;28;20450;-69
2021/10/02 02:29:08;;;;;;;252.90;237.50;;;;;;;;;;5011296;28;20504;-67
2021/10/02 02:31:35;;;;;;;231.70;217.30;;;;;;;;;;5011230;28;20450;-68
2021/10/02 02:34:04;;;;;;;272.77;256.50;;;;;;;;;;5011026;28;20476;-69
2021/10/02 02:36:31;;;;;;;261.43;245.33;;;;;;;;;;5011530;28;20445;-68
2021/10/02 02:38:58;;;;;;;264.20;248.20;;;;;;;;;;5011514;28;20450;-69
2021/10/02 02:41:25;;;;;;;270.80;254.30;;;;;;;;;;5011554;28;20452;-69
2021/10/02 02:43:52;;;;;;;259.53;243.53;;;;;;;;;;5014433;28;20488;-69
2021/10/02 02:46:22;;;;;;;245.50;230.00;;;;;;;;;;5014560;28;20458;-68
2021/10/02 02:48:52;;;;;;;251.03;235.37;;;;;;;;;;5014989;28;20551;-67
2021/10/02 02:51:22;;;;;;;233.03;218.10;;;;;;;;;;5015179;28;20437;-69
2021/10/02 02:53:52;;;;;;;268.73;251.97;;;;;;;;;;5015051;28;20829;-69
2021/10/02 02:56:22;;;;;;;249.23;233.17;;;;;;;;;;5014755;28;20460;-70
2021/10/02 02:58:51;;;;;;;247.97;232.10;;;;;;;;;;5015015;28;20887;-69
2021/10/02 03:01:20;;;;;;;245.97;230.47;;;;;;;;;;5014542;28;20449;-68
2021/10/02 03:03:48;;;;;;;277.33;260.53;;;;;;;;;;5014609;28;20465;-67
2021/10/02 03:06:15;;;;;;;251.03;234.90;;;;;;;;;;5014609;28;20446;-68
2021/10/02 03:08:45;;;;;;;266.77;249.83;;;;;;;;;;5014723;28;20460;-68
2021/10/02 03:11:12;;;;;;;252.23;235.63;;;;;;;;;;5014699;28;20446;-68
2021/10/02 03:13:40;;;;;;;262.73;246.17;;;;;;;;;;5014324;28;20488;-68
2021/10/02 03:16:10;;;;;;;257.57;241.37;;;;;;;;;;5014372;28;20455;-67
2021/10/02 03:18:40;;;;;;;262.93;246.10;;;;;;;;;;5014313;28;21078;-68
2021/10/02 03:21:08;;;;;;;259.53;242.67;;;;;;;;;;5014615;28;20445;-68
2021/10/02 03:23:35;;;;;;;269.33;252.10;;;;;;;;;;5014544;28;20468;-69
2021/10/02 03:26:04;;;;;;;264.40;247.40;;;;;;;;;;5013973;28;20445;-68
2021/10/02 03:28:31;;;;;;;282.30;264.30;;;;;;;;;;5014398;28;20822;-68
2021/10/02 03:30:59;;;;;;;284.93;266.73;;;;;;;;;;5014073;28;20485;-68
2021/10/02 03:33:27;;;;;;;307.47;288.23;;;;;;;;;;5014634;28;20485;-68
2021/10/02 03:35:54;;;;;;;288.37;270.30;;;;;;;;;;5013968;28;20453;-68
2021/10/02 03:38:21;;;;;;;281.70;263.57;;;;;;;;;;5013968;28;20472;-68
2021/10/02 03:40:49;;;;;;;275.00;257.10;;;;;;;;;;5013650;28;20438;-68
2021/10/02 03:43:17;;;;;;;294.43;276.03;;;;;;;;;;5013944;28;20468;-67
2021/10/02 03:45:44;;;;;;;282.90;264.70;;;;;;;;;;5013667;28;20426;-68
2021/10/02 03:48:11;;;;;;;284.33;265.77;;;;;;;;;;5014193;28;20449;-68
2021/10/02 03:50:39;;;;;;;305.03;285.83;;;;;;;;;;5013771;28;20492;-68
2021/10/02 03:53:06;;;;;;;293.10;274.23;;;;;;;;;;5013249;28;20560;-68
2021/10/02 03:55:33;;;;;;;293.17;274.53;;;;;;;;;;5012980;28;20441;-68
2021/10/02 03:58:00;;;;;;;283.50;265.50;;;;;;;;;;5013857;28;20452;-68
2021/10/02 04:00:28;;;;;;;285.07;266.90;;;;;;;;;;5013514;28;20959;-68
2021/10/02 04:02:55;;;;;;;279.30;261.00;;;;;;;;;;5013473;28;20456;-68
2021/10/02 04:05:22;;;;;;;283.37;264.63;;;;;;;;;;5013596;28;20446;-67
2021/10/02 04:07:50;;;;;;;288.37;270.40;;;;;;;;;;5013207;28;20827;-68
2021/10/02 04:10:17;;;;;;;278.87;261.07;;;;;;;;;;5013729;28;20485;-68
2021/10/02 04:12:44;;;;;;;287.77;269.07;;;;;;;;;;5013310;28;20449;-69
2021/10/02 04:15:11;;;;;;;272.07;253.97;;;;;;;;;;5013246;28;20473;-68
2021/10/02 04:17:39;;;;;;;265.70;247.50;;;;;;;;;;5013205;28;20936;-69
2021/10/02 04:20:07;;;;;;;281.07;262.37;;;;;;;;;;5013058;28;20446;-68
2021/10/02 04:22:35;;;;;;;267.13;248.50;;;;;;;;;;5012822;28;20884;-69
2021/10/02 04:25:02;;;;;;;283.83;264.73;;;;;;;;;;5013054;28;20469;-68
2021/10/02 04:27:29;;;;;;;268.13;249.33;;;;;;;;;;5012954;28;20823;-68
2021/10/02 04:29:56;;;;;;;311.27;291.23;;;;;;;;;;5012825;28;20488;-68
2021/10/02 04:32:23;;;;;;;286.17;266.43;;;;;;;;;;5013175;28;20452;-69
2021/10/02 04:34:52;;;;;;;301.20;281.47;;;;;;;;;;5012386;28;20465;-69
2021/10/02 04:37:19;;;;;;;269.37;250.77;;;;;;;;;;5013081;28;20441;-69
2021/10/02 04:39:46;;;;;;;279.30;260.40;;;;;;;;;;5012977;28;20448;-68
2021/10/02 04:42:13;;;;;;;289.50;270.00;;;;;;;;;;5012831;28;20453;-68
2021/10/02 04:44:40;;;;;;;264.77;246.23;;;;;;;;;;5012692;28;20481;-68
2021/10/02 04:47:07;;;;;;;295.63;275.63;;;;;;;;;;5012862;28;20449;-68
2021/10/02 04:49:34;;;;;;;289.87;269.90;;;;;;;;;;5012676;28;21038;-69
2021/10/02 04:52:03;;;;;;;289.60;269.80;;;;;;;;;;5012786;28;20449;-69
2021/10/02 04:54:30;;;;;;;303.17;283.37;;;;;;;;;;5012735;28;20479;-68
2021/10/02 04:56:57;;;;;;;295.43;275.37;;;;;;;;;;5012165;28;20813;-69
2021/10/02 04:59:24;;;;;;;281.60;262.50;;;;;;;;;;5012487;28;20451;-68
2021/10/02 05:01:51;;;;;;;312.17;291.63;;;;;;;;;;5012469;28;20450;-68
2021/10/02 05:04:18;;;;;;;279.53;260.03;;;;;;;;;;5012562;28;20476;-68
2021/10/02 05:06:45;;;;;;;248.27;230.30;;;;;;;;;;5012119;28;20450;-68
2021/10/02 05:09:14;;;;;;;246.00;228.20;;;;;;;;;;5012554;28;20453;-69
2021/10/02 05:11:41;;;;;;;222.53;205.83;;;;;;;;;;5012224;28;20445;-68
2021/10/02 05:14:08;;;;;;;224.27;207.87;;;;;;;;;;5012055;28;20472;-68
2021/10/02 05:16:35;;;;;;;216.50;200.13;;;;;;;;;;5012042;28;20456;-68
2021/10/02 05:19:02;;;;;;;223.10;206.70;;;;;;;;;;5012559;28;20461;-69
2021/10/02 05:21:29;;;;;;;229.90;213.20;;;;;;;;;;5011982;28;20951;-68
2021/10/02 05:23:56;;;;;;;217.97;201.70;;;;;;;;;;5012224;28;20472;-69
2021/10/02 05:26:24;;;;;;;218.30;201.90;;;;;;;;;;5011834;28;20452;-68
2021/10/02 05:28:51;;;;;;;213.27;197.00;;;;;;;;;;5011928;28;20822;-69
2021/10/02 05:31:19;;;;;;;214.67;198.47;;;;;;;;;;5012171;28;20489;-69
2021/10/02 05:33:46;;;;;;;237.57;220.77;;;;;;;;;;5012180;28;20477;-69
2021/10/02 05:36:13;;;;;;;196.13;180.27;;;;;;;;;;5011770;28;20448;-69
2021/10/02 05:38:40;;;;;;;200.30;184.50;;;;;;;;;;5012326;28;20446;-69
2021/10/02 05:41:07;;;;;;;181.73;166.60;;;;;;;;;;5011765;28;20445;-69
2021/10/02 05:43:35;;;;;;;180.20;165.30;;;;;;;;;;5011456;28;20485;-69
2021/10/02 05:46:02;;;;;;;177.80;163.17;;;;;;;;;;5062661;22;20801;-72
2021/10/02 05:48:30;;;;;;;175.03;160.53;;;;;;;;;;5064939;28;20818;-71
2021/10/02 05:50:57;;;;;;;184.30;169.10;;;;;;;;;;5051978;28;20483;-71
2021/10/02 05:53:24;;;;;;;199.57;184.33;;;;;;;;;;5052725;28;20477;-72
2021/10/02 05:55:51;;;;;;;196.07;180.37;;;;;;;;;;5065898;28;20470;-70
2021/10/02 05:58:18;;;;;;;183.37;168.07;;;;;;;;;;5072172;28;20454;-71
2021/10/02 06:00:47;;;;;;;195.23;179.83;;;;;;;;;;5072616;28;20450;-69
2021/10/02 06:03:14;;;;;;;180.60;165.80;;;;;;;;;;5071455;28;20486;-71
2021/10/02 06:05:42;;;;;;;196.73;181.17;;;;;;;;;;5071854;28;20467;-71
2021/10/02 06:08:09;;;;;;;199.67;183.90;;;;;;;;;;5071790;28;20447;-71
2021/10/02 06:10:36;;;;;;;199.80;184.00;;;;;;;;;;5071798;28;20486;-71
2021/10/02 06:13:03;;;;;;;196.97;181.23;;;;;;;;;;5072001;28;20450;-74
2021/10/02 06:15:30;;;;;;;215.53;199.13;;;;;;;;;;5071376;28;20481;-71
2021/10/02 06:17:58;;;;;;;209.43;193.43;;;;;;;;;;5073783;28;20961;-71
2021/10/02 06:20:26;;;;;;;207.03;190.93;;;;;;;;;;5075571;28;20942;-71
2021/10/02 06:22:53;;;;;;;209.60;193.23;;;;;;;;;;5075409;28;20451;-72
2021/10/02 06:25:20;;;;;;;208.63;192.43;;;;;;;;;;5075391;28;20487;-71
2021/10/02 06:27:47;;;;;;;220.33;203.00;;;;;;;;;;5075463;28;20439;-73
2021/10/02 06:30:14;;;;;;;209.60;193.00;;;;;;;;;;5075474;28;20486;-71
2021/10/02 06:32:41;;;;;;;204.50;187.87;;;;;;;;;;5075613;28;20797;-71
2021/10/02 06:35:10;;;;;;;198.30;182.30;;;;;;;;;;5075075;28;20471;-70
2021/10/02 06:37:37;;;;;;;387.93;360.00;;;;;;;;;;5074876;28;20447;-70
2021/10/02 06:40:05;;;;;;;261.23;243.53;;;;;;;;;;5075244;28;20439;-71
2021/10/02 06:42:32;;;;;;;209.67;193.80;;;;;;;;;;5075134;28;20470;-70
2021/10/02 06:44:59;;;;;;;202.57;186.50;;;;;;;;;;5074415;28;20475;-71
2021/10/02 06:47:26;;;;;;;219.83;203.17;;;;;;;;;;5075252;28;20427;-71
2021/10/02 06:49:57;;;;;;;214.87;198.37;;;;;;;;;;5075210;28;20469;-73
2021/10/02 06:52:25;;;;;;;219.30;202.33;;;;;;;;;;5074953;28;20430;-72
2021/10/02 06:54:52;;;;;;;212.77;196.70;;;;;;;;;;5074531;28;20474;-70
2021/10/02 06:57:20;;;;;;;215.07;198.27;;;;;;;;;;5074301;28;20945;-70
2021/10/02 06:59:47;;;;;;;178.67;164.43;;;;;;;;;;5066048;28;20466;-72
2021/10/02 07:02:14;;;;;;;156.60;144.70;;;;;;;;;;5053097;28;21057;-67
2021/10/02 07:04:42;;;;;;;179.00;164.50;;;;;;;;;;5051440;28;20479;-65
2021/10/02 07:07:09;;;;;;;205.87;189.20;;;;;;;;;;5053326;28;20464;-69
2021/10/02 07:09:38;;;;;;;274.03;253.20;;;;;;;;;;5052027;28;20451;-68
2021/10/02 07:12:05;;;;;;;414.27;385.77;;;;;;;;;;5054270;28;20827;-67
2021/10/02 07:14:32;;;;;;;540.33;504.50;;;;;;;;;;5050888;28;20551;-66
2021/10/02 07:16:59;;;;;;;601.07;563.10;;;;;;;;;;5051950;28;20978;-66
2021/10/02 07:19:26;;;;;;;617.93;580.10;;;;;;;;;;5053291;28;20463;-66
2021/10/02 07:21:53;;;;;;;613.67;575.57;;;;;;;;;;5049671;28;20459;-66
2021/10/02 07:24:21;;;;;;;609.80;571.93;;;;;;;;;;5037506;28;20464;-65
2021/10/02 07:26:50;;;;;;;571.53;535.67;;;;;;;;;;5034112;28;20459;-66
2021/10/02 07:29:18;;;;;;;556.27;521.67;;;;;;;;;;5045096;28;20480;-66
2021/10/02 07:31:48;;;;;;;526.17;491.97;;;;;;;;;;5053745;28;20990;-66
2021/10/02 07:34:15;;;;;;;498.80;466.80;;;;;;;;;;5048953;28;20463;-66
2021/10/02 07:36:42;;;;;;;422.60;393.20;;;;;;;;;;5052927;28;20467;-67
2021/10/02 07:39:09;;;;;;;434.80;406.60;;;;;;;;;;5051335;28;20471;-66
2021/10/02 07:41:39;;;;;;;386.47;359.90;;;;;;;;;;5053526;28;20470;-66
2021/10/02 07:44:08;;;;;;;396.33;369.83;;;;;;;;;;5051198;28;20534;-67
2021/10/02 07:46:36;;;;;;;388.30;362.10;;;;;;;;;;5052896;28;20522;-66
2021/10/02 07:49:03;;;;;;;434.43;408.03;;;;;;;;;;5053658;28;20993;-66
2021/10/02 07:51:30;;;;;;;401.70;377.27;;;;;;;;;;5053080;28;20495;-66
2021/10/02 07:53:57;;;;;;;415.23;391.03;;;;;;;;;;5053133;28;20459;-67
2021/10/02 07:56:25;;;;;;;410.40;387.30;;;;;;;;;;5053070;28;20488;-67
2021/10/02 07:58:53;;;;;;;415.83;392.77;;;;;;;;;;5053467;28;20457;-66
2021/10/02 08:01:22;;;;;;;405.07;383.67;;;;;;;;;;5052570;28;20459;-66
2021/10/02 08:03:50;;;;;;;401.70;381.03;;;;;;;;;;5052151;28;20463;-66
2021/10/02 08:06:17;;;;;;;428.13;407.13;;;;;;;;;;5052320;28;20809;-66
2021/10/02 08:08:45;;;;;;;404.63;384.93;;;;;;;;;;5050777;28;20467;-67
2021/10/02 08:11:12;;;;;;;395.50;377.10;;;;;;;;;;5052103;28;20484;-66
2021/10/02 08:13:39;;;;;;;383.17;365.77;;;;;;;;;;5051897;28;20955;-66
2021/10/02 08:16:08;;;;;;;383.40;365.80;;;;;;;;;;5051727;28;20914;-66
2021/10/02 08:18:38;;;;;;;377.53;360.73;;;;;;;;;;5052063;28;20468;-66
2021/10/02 08:21:06;;;;;;;359.47;343.60;;;;;;;;;;5051926;28;21018;-68
2021/10/02 08:23:35;;;;;;;374.23;357.03;;;;;;;;;;5051667;28;20448;-67
2021/10/02 08:26:02;;;;;;;370.03;353.80;;;;;;;;;;5052012;28;20471;-68
2021/10/02 08:28:30;;;;;;;350.53;334.73;;;;;;;;;;5032739;28;20445;-67
2021/10/02 08:30:58;;;;;;;355.30;340.07;;;;;;;;;;5047973;28;20476;-68
2021/10/02 08:33:25;;;;;;;341.90;327.10;;;;;;;;;;5051106;28;20481;-68
2021/10/02 08:35:53;;;;;;;345.60;330.90;;;;;;;;;;5048663;28;21037;-66
2021/10/02 08:38:20;;;;;;;326.00;312.40;;;;;;;;;;5050566;28;20955;-66
2021/10/02 08:40:48;;;;;;;310.10;296.57;;;;;;;;;;5051794;28;20444;-67
2021/10/02 08:43:16;;;;;;;316.53;302.63;;;;;;;;;;5052674;28;20458;-65
2021/10/02 08:45:44;;;;;;;308.93;295.23;;;;;;;;;;5051886;28;20479;-66
2021/10/02 08:48:14;;;;;;;298.20;284.70;;;;;;;;;;5051724;28;20546;-66
2021/10/02 08:50:42;;;;;;;306.83;293.43;;;;;;;;;;5051172;28;20955;-65
2021/10/02 08:53:11;;;;;;;295.17;281.60;;;;;;;;;;5051414;28;20463;-65
2021/10/02 08:55:38;;;;;;;293.23;279.47;;;;;;;;;;5051966;28;20476;-70
2021/10/02 08:58:05;;;;;;;260.03;247.23;;;;;;;;;;5051875;28;20455;-69
2021/10/02 09:00:33;;;;;;;289.20;276.40;;;;;;;;;;5050541;28;20455;-69
2021/10/02 09:03:00;;;;;;;259.27;247.47;;;;;;;;;;5051916;28;20466;-69
2021/10/02 09:05:28;;;;;;;269.43;257.97;;;;;;;;;;5051705;28;20994;-70
2021/10/02 09:07:56;;;;;;;306.40;293.80;;;;;;;;;;5051010;28;20448;-69
2021/10/02 09:10:25;;;;;;;280.07;268.20;;;;;;;;;;5052179;28;20447;-70
2021/10/02 09:12:52;;;;;;;294.30;282.10;;;;;;;;;;5051768;28;20480;-67
2021/10/02 09:15:19;;;;;;;280.63;268.80;;;;;;;;;;5051463;28;20468;-66
2021/10/02 09:17:47;;;;;;;257.63;246.10;;;;;;;;;;5051467;28;20969;-63
2021/10/02 09:20:16;;;;;;;326.80;313.10;;;;;;;;;;5051478;28;20535;-64
2021/10/02 09:22:52;;;;;;;294.63;281.83;;;;;;;;;;5051749;28;20452;-64
2021/10/02 09:25:19;;;;;;;296.17;283.77;;;;;;;;;;5051406;28;21009;-64
2021/10/02 09:28:01;;;;;;;282.50;270.47;;;;;;;;;;5052006;28;20444;-63
2021/10/02 09:30:28;;;;;;;297.40;285.20;;;;;;;;;;5050947;28;20521;-64
2021/10/02 09:33:02;;;;;;;273.27;261.77;;;;;;;;;;5051565;28;20475;-64
2021/10/02 09:35:30;;;;;;;290.53;278.43;;;;;;;;;;5047674;28;20990;-65
2021/10/02 09:37:57;;;;;;;269.13;257.90;;;;;;;;;;5049894;28;20456;-64
2021/10/02 09:40:27;;;;;;;269.17;258.00;;;;;;;;;;5051007;28;20452;-65
2021/10/02 09:42:56;;;;;;;412.77;387.10;;;;;;;;;;5042034;28;20525;-64
2021/10/02 09:45:26;;;;;;;461.50;431.10;;;;;;;;;;5045641;28;20484;-61
2021/10/02 09:47:54;;;;;;;487.27;454.17;;;;;;;;;;5051439;28;20459;-63
2021/10/02 09:50:22;;;;;;;536.83;498.07;;;;;;;;;;5051426;28;20447;-66
2021/10/02 09:52:54;;;;;;;527.07;488.87;;;;;;;;;;5050691;28;20480;-68
2021/10/02 09:55:23;;;;;;;509.27;472.67;;;;;;;;;;5050464;28;20566;-63
2021/10/02 09:57:51;;;;;;;469.07;438.30;;;;;;;;;;5050860;28;20455;-66
2021/10/02 10:00:21;;;;;;;436.93;407.30;;;;;;;;;;5051882;28;20462;-66
2021/10/02 10:02:48;;;;;;;450.17;420.63;;;;;;;;;;5051621;28;20450;-64
2021/10/02 10:05:15;;;;;;;472.57;444.50;;;;;;;;;;5050601;28;20471;-63
2021/10/02 10:07:52;;;;;;;497.63;465.77;;;;;;;;;;5051188;28;20957;-66
2021/10/02 10:10:20;;;;;;;450.57;421.17;;;;;;;;;;5050448;28;20443;-63
2021/10/02 10:12:47;;;;;;;472.53;442.90;;;;;;;;;;5051168;28;20487;-64
2021/10/02 10:15:28;;;;;;;506.97;477.63;;;;;;;;;;5043038;28;20501;-64
2021/10/02 10:17:55;;;;;;;414.90;388.27;;;;;;;;;;5031429;28;20455;-63
2021/10/02 10:20:30;;;;;;;385.47;362.43;;;;;;;;;;5040256;28;20455;-64
2021/10/02 10:22:58;;;;;;;380.63;358.57;;;;;;;;;;5051435;28;20436;-64
2021/10/02 10:25:25;;;;;;;329.17;310.53;;;;;;;;;;5048129;28;20476;-62
2021/10/02 10:27:52;;;;;;;363.73;343.20;;;;;;;;;;5051615;28;20467;-64
2021/10/02 10:30:21;;;;;;;419.17;395.77;;;;;;;;;;5051186;28;20455;-63
2021/10/02 10:32:57;;;;;;;454.70;430.07;;;;;;;;;;5050941;28;20485;-64
2021/10/02 10:35:25;;;;;;;478.70;452.50;;;;;;;;;;5050981;28;20482;-64
2021/10/02 10:37:52;;;;;;;481.10;453.57;;;;;;;;;;5051122;28;20448;-61
2021/10/02 10:40:19;;;;;;;475.27;448.17;;;;;;;;;;5051257;28;20448;-62
2021/10/02 10:42:47;;;;;;;469.00;441.40;;;;;;;;;;5050710;28;20448;-62
2021/10/02 10:45:14;;;;;;;485.70;458.20;;;;;;;;;;5050774;28;20486;-62
2021/10/02 10:47:41;;;;;;;471.60;443.60;;;;;;;;;;5050521;28;20518;-62
2021/10/02 10:50:10;;;;;;;468.50;441.90;;;;;;;;;;5051697;28;20506;-62
2021/10/02 10:52:38;;;;;;;457.97;431.20;;;;;;;;;;5050400;28;20487;-62
2021/10/02 10:55:11;;;;;;;489.40;463.37;;;;;;;;;;5050583;28;20472;-62
2021/10/02 10:57:40;;;;;;;502.80;468.80;;;;;;;;;;5049137;28;20512;-62
2021/10/02 11:00:09;;;;;;;516.00;479.90;;;;;;;;;;5050875;28;20440;-63
2021/10/02 11:02:47;;;;;;;492.20;459.00;;;;;;;;;;5048061;28;20448;-63
2021/10/02 11:05:44;;;;;;;475.27;447.13;;;;;;;;;;5048461;28;20477;-63
2021/10/02 11:08:13;;;;;;;465.93;438.80;;;;;;;;;;4973142;28;20534;-62
2021/10/02 11:10:51;;;;;;;472.83;445.00;;;;;;;;;;5035590;28;20455;-63
2021/10/02 11:13:19;;;;;;;489.40;461.10;;;;;;;;;;5049262;28;20471;-63
2021/10/02 11:15:47;;;;;;;467.40;439.60;;;;;;;;;;5043404;28;20472;-63
2021/10/02 11:18:35;;;;;;;481.87;454.20;;;;;;;;;;5049846;28;20458;-62
2021/10/02 11:21:03;;;;;;;479.73;450.73;;;;;;;;;;5052271;28;20448;-63
2021/10/02 11:23:57;;;;;;;510.67;481.17;;;;;;;;;;5060610;28;20521;-62
2021/10/02 11:26:27;;;;;;;488.77;459.30;;;;;;;;;;5048677;28;20499;-62
2021/10/02 11:29:09;;;;;;;505.50;475.50;;;;;;;;;;5053126;28;20451;-62
2021/10/02 11:31:36;;;;;;;527.60;497.10;;;;;;;;;;5053060;28;20986;-62
2021/10/02 11:34:04;;;;;;;512.03;482.60;;;;;;;;;;5053339;28;20456;-61
2021/10/02 11:36:48;;;;;;;526.40;497.87;;;;;;;;;;5053043;28;20476;-62
2021/10/02 11:39:19;;;;;;;513.23;484.03;;;;;;;;;;5053420;28;20451;-63
2021/10/02 11:41:49;;;;;;;509.50;482.07;;;;;;;;;;5053266;28;20456;-62
2021/10/02 11:44:24;;;;;;;500.57;472.67;;;;;;;;;;5052772;28;20436;-62
2021/10/02 11:46:56;;;;;;;489.67;462.37;;;;;;;;;;5081817;22;20441;-64
2021/10/02 11:49:23;;;;;;;499.23;471.53;;;;;;;;;;5040591;28;20464;-63
2021/10/02 11:52:10;;;;;;;483.27;454.07;;;;;;;;;;5031078;28;20848;-65
2021/10/02 11:54:37;;;;;;;490.97;464.27;;;;;;;;;;5033367;28;20449;-63
2021/10/02 11:57:09;;;;;;;482.53;456.27;;;;;;;;;;5028463;28;20482;-64
2021/10/02 11:59:41;;;;;;;486.77;458.70;;;;;;;;;;5014474;28;20450;-63
2021/10/02 12:02:08;;;;;;;487.03;458.40;;;;;;;;;;5014317;28;20510;-66
2021/10/02 12:04:35;;;;;;;492.13;464.13;;;;;;;;;;5028142;28;20455;-65
2021/10/02 12:07:03;;;;;;;515.17;486.10;;;;;;;;;;5033031;28;20469;-63
2021/10/02 12:09:30;;;;;;;491.20;463.37;;;;;;;;;;5029437;28;20464;-63
2021/10/02 12:11:57;;;;;;;506.13;477.63;;;;;;;;;;5031144;28;20597;-63
2021/10/02 12:14:27;;;;;;;503.57;474.97;;;;;;;;;;5026400;28;20949;-64
2021/10/02 12:16:54;;;;;;;498.57;469.77;;;;;;;;;;5032041;28;20468;-63
2021/10/02 12:19:21;;;;;;;509.43;480.27;;;;;;;;;;5024379;28;20458;-63
2021/10/02 12:21:50;;;;;;;520.17;490.27;;;;;;;;;;5014932;28;20453;-64
2021/10/02 12:24:18;;;;;;;525.40;496.00;;;;;;;;;;5013374;28;20467;-64
2021/10/02 12:26:50;;;;;;;523.10;493.60;;;;;;;;;;5030637;28;20472;-63
2021/10/02 12:29:18;;;;;;;534.17;504.57;;;;;;;;;;5032481;28;20460;-63
2021/10/02 12:31:48;;;;;;;509.73;478.83;;;;;;;;;;5032092;28;20450;-63
2021/10/02 12:34:17;;;;;;;427.87;400.07;;;;;;;;;;5032931;28;20448;-63
2021/10/02 12:36:46;;;;;;;382.83;358.83;;;;;;;;;;5031615;28;20483;-66
2021/10/02 12:39:13;;;;;;;356.63;334.93;;;;;;;;;;5032923;28;20453;-66
2021/10/02 12:41:42;;;;;;;355.40;333.60;;;;;;;;;;5032270;28;20436;-63
2021/10/02 12:44:19;;;;;;;331.70;311.60;;;;;;;;;;5032799;28;20448;-63
2021/10/02 12:46:48;;;;;;;344.63;325.87;;;;;;;;;;5022520;28;20561;-63
2021/10/02 12:49:16;;;;;;;359.07;340.70;;;;;;;;;;5032347;28;20955;-66
2021/10/02 12:51:43;;;;;;;350.17;331.00;;;;;;;;;;5018145;28;20461;-63
2021/10/02 12:54:11;;;;;;;348.97;329.17;;;;;;;;;;5012750;28;20825;-63
2021/10/02 12:56:53;;;;;;;351.40;330.90;;;;;;;;;;5014064;28;20473;-63
2021/10/02 12:59:20;;;;;;;355.87;334.53;;;;;;;;;;5015571;28;20452;-64
2021/10/02 13:01:50;;;;;;;335.63;313.03;;;;;;;;;;5030561;28;20978;-63
2021/10/02 13:04:17;;;;;;;373.70;350.37;;;;;;;;;;5022494;28;20445;-63
2021/10/02 13:06:51;;;;;;;381.80;358.13;;;;;;;;;;5031276;28;20851;-63
2021/10/02 13:09:18;;;;;;;399.90;375.70;;;;;;;;;;5031770;28;20451;-64
2021/10/02 13:11:45;;;;;;;401.67;377.27;;;;;;;;;;5032515;28;20502;-63
2021/10/02 13:14:12;;;;;;;432.70;407.80;;;;;;;;;;5023356;28;20446;-63
2021/10/02 13:16:39;;;;;;;450.40;424.87;;;;;;;;;;5028962;28;20829;-63
2021/10/02 13:19:08;;;;;;;449.33;424.13;;;;;;;;;;5026777;28;20449;-65
2021/10/02 13:21:35;;;;;;;471.50;445.10;;;;;;;;;;5032438;28;20435;-63
2021/10/02 13:24:08;;;;;;;420.17;394.70;;;;;;;;;;5030399;28;20809;-63
2021/10/02 13:26:46;;;;;;;466.63;439.67;;;;;;;;;;5031962;28;20453;-63
2021/10/02 13:29:24;;;;;;;482.10;456.17;;;;;;;;;;5032051;28;20452;-63
2021/10/02 13:31:51;;;;;;;442.23;416.00;;;;;;;;;;5031871;28;20456;-63
2021/10/02 13:34:20;;;;;;;464.00;437.67;;;;;;;;;;5029219;28;20447;-65
2021/10/02 13:36:47;;;;;;;445.40;420.30;;;;;;;;;;5031632;28;20465;-63
2021/10/02 13:39:14;;;;;;;459.90;434.07;;;;;;;;;;5030903;28;20468;-63
2021/10/02 13:41:46;;;;;;;464.97;437.57;;;;;;;;;;5027194;28;20450;-63
2021/10/02 13:44:14;;;;;;;453.97;427.67;;;;;;;;;;5022357;28;20536;-62
2021/10/02 13:46:42;;;;;;;487.83;460.03;;;;;;;;;;5018604;28;20477;-63
2021/10/02 13:49:10;;;;;;;463.90;435.80;;;;;;;;;;5024687;28;20453;-63
2021/10/02 13:51:39;;;;;;;479.70;452.30;;;;;;;;;;5023294;28;20450;-63
2021/10/02 13:54:06;;;;;;;476.80;448.90;;;;;;;;;;5017498;28;20847;-63
2021/10/02 13:56:34;;;;;;;484.60;457.00;;;;;;;;;;5031367;28;20970;-63
2021/10/02 13:59:01;;;;;;;474.60;446.43;;;;;;;;;;5020583;28;20473;-65
2021/10/02 14:01:28;;;;;;;481.63;454.73;;;;;;;;;;5011859;28;20461;-64
2021/10/02 14:03:55;;;;;;;481.40;454.10;;;;;;;;;;5012671;28;20523;-64
2021/10/02 14:06:22;;;;;;;484.23;457.10;;;;;;;;;;5017518;28;20465;-65
2021/10/02 14:08:51;;;;;;;487.23;459.80;;;;;;;;;;5031707;28;20456;-65
2021/10/02 14:11:18;;;;;;;458.33;430.57;;;;;;;;;;5031430;28;20936;-65
2021/10/02 14:13:45;;;;;;;453.20;427.40;;;;;;;;;;5026106;28;20481;-65
2021/10/02 14:16:12;;;;;;;485.00;458.60;;;;;;;;;;5013133;28;20449;-65
2021/10/02 14:18:40;;;;;;;500.17;473.07;;;;;;;;;;5020041;28;20480;-64
2021/10/02 14:21:07;;;;;;;484.23;457.43;;;;;;;;;;5030007;28;20460;-65
2021/10/02 14:23:34;;;;;;;467.77;440.53;;;;;;;;;;5024371;28;20448;-65
2021/10/02 14:26:03;;;;;;;482.20;453.90;;;;;;;;;;5026700;28;21131;-64
2021/10/02 14:28:31;;;;;;;482.67;454.50;;;;;;;;;;5018401;28;20853;-65
2021/10/02 14:30:58;;;;;;;480.27;452.67;;;;;;;;;;5024163;28;20469;-64
2021/10/02 14:33:25;;;;;;;469.97;441.53;;;;;;;;;;5026830;28;21030;-65
2021/10/02 14:35:53;;;;;;;486.77;458.77;;;;;;;;;;5026626;28;20468;-64
2021/10/02 14:38:20;;;;;;;468.93;441.03;;;;;;;;;;5020127;28;20848;-65
2021/10/02 14:40:47;;;;;;;484.53;456.93;;;;;;;;;;5021156;28;20451;-65
2021/10/02 14:43:16;;;;;;;476.67;449.57;;;;;;;;;;5017894;28;20454;-65
2021/10/02 14:45:43;;;;;;;459.90;432.20;;;;;;;;;;5015095;28;20492;-65
2021/10/02 14:48:11;;;;;;;444.63;416.37;;;;;;;;;;5017750;28;20480;-65
2021/10/02 14:50:39;;;;;;;457.30;429.40;;;;;;;;;;5034854;28;20445;-66
2021/10/02 14:53:07;;;;;;;514.13;483.60;;;;;;;;;;5035101;28;20488;-65